Time;durP1;ratioP1;P1;durP2;ratioP2;P2;SDS_P1;SDS_P2;PMS_P1;PMS_P2;Temp;Humidity;BMP_temperature;BMP_pressure;BME280_temperature;BME280_humidity;BME280_pressure;Samples;Min_cycle;Max_cycle;Signal;HPM_P1;HPM_P2
2023/04/25 00:00:37;;;;;;;9.97;4.37;;;;;;;;;;5068110;28;20221;-53
2023/04/25 00:03:05;;;;;;;6.93;3.90;;;;;;;;;;5066132;28;20164;-53
2023/04/25 00:05:31;;;;;;;5.63;3.87;;;;;;;;;;5067141;28;20184;-53
2023/04/25 00:07:58;;;;;;;7.80;4.83;;;;;;;;;;5063531;28;20169;-53
2023/04/25 00:10:25;;;;;;;7.90;4.23;;;;;;;;;;5068508;28;20537;-53
2023/04/25 00:12:51;;;;;;;6.10;3.37;;;;;;;;;;5058266;28;20193;-53
2023/04/25 00:15:17;;;;;;;6.70;4.00;;;;;;;;;;5050493;28;20176;-53
2023/04/25 00:17:45;;;;;;;6.17;3.50;;;;;;;;;;5067196;28;20196;-54
2023/04/25 00:20:12;;;;;;;7.00;4.00;;;;;;;;;;5067054;28;20217;-53
2023/04/25 00:22:38;;;;;;;6.20;3.60;;;;;;;;;;5063200;28;20185;-54
2023/04/25 00:25:06;;;;;;;4.70;3.60;;;;;;;;;;5068854;28;20215;-53
2023/04/25 00:27:32;;;;;;;4.13;3.20;;;;;;;;;;5066960;28;20241;-53
2023/04/25 00:29:59;;;;;;;6.67;3.77;;;;;;;;;;5068326;28;20688;-53
2023/04/25 00:32:25;;;;;;;5.03;3.60;;;;;;;;;;5065129;28;20173;-53
2023/04/25 00:34:52;;;;;;;5.93;3.50;;;;;;;;;;5063942;28;20187;-53
2023/04/25 00:37:19;;;;;;;6.97;3.87;;;;;;;;;;5067663;28;20198;-54
2023/04/25 00:39:45;;;;;;;10.50;4.03;;;;;;;;;;5068048;28;20172;-54
2023/04/25 00:42:12;;;;;;;5.07;3.63;;;;;;;;;;5065660;28;20258;-54
2023/04/25 00:44:39;;;;;;;5.30;3.80;;;;;;;;;;5067532;28;20252;-53
2023/04/25 00:47:06;;;;;;;7.50;4.53;;;;;;;;;;5067994;28;20168;-53
2023/04/25 00:49:32;;;;;;;5.77;3.80;;;;;;;;;;5066422;28;20184;-53
2023/04/25 00:51:58;;;;;;;7.87;3.87;;;;;;;;;;5066570;28;20720;-53
2023/04/25 00:54:25;;;;;;;5.70;3.20;;;;;;;;;;5065059;28;20263;-53
2023/04/25 00:56:51;;;;;;;6.10;3.60;;;;;;;;;;5069409;28;20207;-53
2023/04/25 00:59:19;;;;;;;5.07;3.10;;;;;;;;;;5064222;28;20188;-53
2023/04/25 01:01:45;;;;;;;8.40;4.10;;;;;;;;;;5066991;28;20261;-53
2023/04/25 01:04:11;;;;;;;6.13;3.70;;;;;;;;;;5064493;28;20577;-53
2023/04/25 01:06:38;;;;;;;5.20;3.37;;;;;;;;;;5047028;28;20287;-53
2023/04/25 01:09:05;;;;;;;6.27;3.70;;;;;;;;;;5063618;28;20180;-53
2023/04/25 01:11:31;;;;;;;8.00;3.57;;;;;;;;;;5068797;28;20219;-53
2023/04/25 01:13:57;;;;;;;6.77;3.77;;;;;;;;;;5065860;28;20181;-54
2023/04/25 01:16:23;;;;;;;6.10;3.63;;;;;;;;;;5068720;28;20263;-53
2023/04/25 01:18:51;;;;;;;9.27;3.80;;;;;;;;;;5064584;28;20640;-53
2023/04/25 01:21:17;;;;;;;5.33;3.13;;;;;;;;;;5057603;28;20189;-53
2023/04/25 01:23:43;;;;;;;4.83;2.87;;;;;;;;;;5063801;28;20228;-53
2023/04/25 01:26:10;;;;;;;8.40;3.10;;;;;;;;;;5066265;28;20880;-53
2023/04/25 01:28:37;;;;;;;8.50;3.80;;;;;;;;;;5065434;28;20667;-53
2023/04/25 01:31:03;;;;;;;8.03;3.77;;;;;;;;;;5068148;28;20202;-53
2023/04/25 01:33:29;;;;;;;6.00;3.73;;;;;;;;;;5063327;28;20177;-53
2023/04/25 01:35:55;;;;;;;3.93;2.97;;;;;;;;;;5063675;28;20180;-53
2023/04/25 01:38:21;;;;;;;5.37;3.30;;;;;;;;;;5063964;28;20255;-53
2023/04/25 01:40:49;;;;;;;4.07;3.20;;;;;;;;;;5067187;28;20188;-54
2023/04/25 01:43:16;;;;;;;6.67;3.57;;;;;;;;;;5061115;28;20184;-53
2023/04/25 01:45:42;;;;;;;6.30;3.73;;;;;;;;;;5072542;28;20633;-53
2023/04/25 01:48:09;;;;;;;8.53;3.80;;;;;;;;;;5066930;28;20183;-53
2023/04/25 01:50:35;;;;;;;6.33;3.00;;;;;;;;;;5071690;28;20188;-53
2023/04/25 01:53:04;;;;;;;6.57;3.97;;;;;;;;;;5046241;28;20212;-53
2023/04/25 01:55:30;;;;;;;5.07;3.70;;;;;;;;;;5071467;28;20208;-53
2023/04/25 01:57:56;;;;;;;5.03;3.23;;;;;;;;;;5068180;28;20188;-53
2023/04/25 02:00:23;;;;;;;8.07;4.00;;;;;;;;;;5071048;28;20181;-53
2023/04/25 02:02:50;;;;;;;4.57;3.07;;;;;;;;;;5069122;28;20164;-54
2023/04/25 02:05:16;;;;;;;3.77;3.07;;;;;;;;;;5069098;28;20176;-53
2023/04/25 02:07:42;;;;;;;5.50;3.10;;;;;;;;;;5066443;28;20176;-53
2023/04/25 02:10:09;;;;;;;3.10;2.70;;;;;;;;;;5070556;28;20172;-53
2023/04/25 02:12:36;;;;;;;4.27;3.20;;;;;;;;;;5069289;28;20204;-54
2023/04/25 02:15:02;;;;;;;5.80;3.00;;;;;;;;;;5070144;28;20172;-53
2023/04/25 02:17:28;;;;;;;4.93;3.00;;;;;;;;;;5068486;28;20535;-53
2023/04/25 02:19:54;;;;;;;4.80;2.70;;;;;;;;;;5070232;28;20177;-53
2023/04/25 02:22:20;;;;;;;4.73;3.07;;;;;;;;;;5067085;28;20705;-53
2023/04/25 02:24:46;;;;;;;5.77;2.73;;;;;;;;;;5071162;28;20216;-53
2023/04/25 02:27:12;;;;;;;6.77;3.17;;;;;;;;;;5061862;28;20175;-53
2023/04/25 02:29:38;;;;;;;6.27;3.30;;;;;;;;;;5070542;28;20200;-53
2023/04/25 02:32:05;;;;;;;5.10;3.03;;;;;;;;;;5067296;28;20184;-53
2023/04/25 02:34:31;;;;;;;6.10;3.03;;;;;;;;;;5066517;28;20177;-53
2023/04/25 02:36:57;;;;;;;5.53;2.90;;;;;;;;;;5067221;28;20583;-53
2023/04/25 02:39:25;;;;;;;5.07;3.13;;;;;;;;;;5070613;28;20214;-53
2023/04/25 02:41:51;;;;;;;5.37;2.73;;;;;;;;;;5067147;28;20184;-54
2023/04/25 02:44:17;;;;;;;4.23;2.67;;;;;;;;;;5069389;28;20185;-53
2023/04/25 02:46:43;;;;;;;3.97;2.80;;;;;;;;;;5069810;28;20176;-53
2023/04/25 02:49:09;;;;;;;3.17;2.73;;;;;;;;;;5054480;28;20699;-53
2023/04/25 02:51:35;;;;;;;4.27;2.90;;;;;;;;;;5048826;28;20181;-53
2023/04/25 02:54:01;;;;;;;4.40;2.77;;;;;;;;;;5066849;28;20624;-53
2023/04/25 02:56:27;;;;;;;2.67;2.43;;;;;;;;;;5069341;28;20191;-53
2023/04/25 02:58:54;;;;;;;6.87;3.13;;;;;;;;;;5066849;28;20207;-54
2023/04/25 03:01:20;;;;;;;4.33;3.93;;;;;;;;;;5069306;28;20177;-53
2023/04/25 03:03:46;;;;;;;5.07;3.53;;;;;;;;;;5066710;28;20250;-53
2023/04/25 03:06:12;;;;;;;3.60;2.23;;;;;;;;;;5067329;28;20268;-53
2023/04/25 03:08:38;;;;;;;4.33;2.73;;;;;;;;;;5066597;28;20270;-53
2023/04/25 03:11:04;;;;;;;5.37;3.13;;;;;;;;;;5069324;28;20185;-53
2023/04/25 03:13:30;;;;;;;4.80;3.10;;;;;;;;;;5065276;28;20272;-53
2023/04/25 03:15:56;;;;;;;7.17;2.87;;;;;;;;;;5069447;28;20238;-53
2023/04/25 03:18:22;;;;;;;7.07;4.00;;;;;;;;;;5067215;28;20224;-53
2023/04/25 03:20:48;;;;;;;7.03;3.23;;;;;;;;;;5069452;28;20173;-53
2023/04/25 03:23:14;;;;;;;3.27;2.60;;;;;;;;;;5059293;28;20742;-53
2023/04/25 03:25:40;;;;;;;10.37;3.57;;;;;;;;;;5068562;28;20179;-53
2023/04/25 03:28:06;;;;;;;6.30;3.40;;;;;;;;;;5068023;28;20640;-54
2023/04/25 03:30:32;;;;;;;5.40;2.97;;;;;;;;;;5068970;28;20180;-53
2023/04/25 03:32:59;;;;;;;5.10;3.33;;;;;;;;;;5060581;28;20528;-53
2023/04/25 03:35:25;;;;;;;9.30;3.57;;;;;;;;;;5065134;28;20216;-53
2023/04/25 03:37:51;;;;;;;6.57;3.60;;;;;;;;;;5066088;28;20200;-53
2023/04/25 03:40:17;;;;;;;5.57;3.67;;;;;;;;;;5069234;28;20560;-54
2023/04/25 03:42:43;;;;;;;6.43;2.70;;;;;;;;;;5058885;28;20260;-53
2023/04/25 03:45:09;;;;;;;6.60;3.80;;;;;;;;;;5066209;28;21006;-53
2023/04/25 03:47:35;;;;;;;7.97;3.73;;;;;;;;;;5067460;28;20242;-53
2023/04/25 03:50:02;;;;;;;4.17;3.20;;;;;;;;;;5068694;28;20185;-53
2023/04/25 03:52:29;;;;;;;6.37;2.73;;;;;;;;;;5057845;28;20185;-53
2023/04/25 03:54:55;;;;;;;5.73;3.60;;;;;;;;;;5065132;28;20189;-53
2023/04/25 03:57:21;;;;;;;5.77;3.97;;;;;;;;;;5064876;28;20262;-53
2023/04/25 03:59:47;;;;;;;6.40;3.40;;;;;;;;;;5068111;28;20205;-53
2023/04/25 04:02:13;;;;;;;6.63;4.30;;;;;;;;;;5061959;28;20233;-53
2023/04/25 04:04:39;;;;;;;7.03;3.53;;;;;;;;;;5064556;28;20762;-53
2023/04/25 04:07:05;;;;;;;8.37;3.83;;;;;;;;;;5065338;28;20683;-53
2023/04/25 04:09:31;;;;;;;7.13;3.30;;;;;;;;;;5068239;28;20180;-53
2023/04/25 04:11:58;;;;;;;9.20;3.57;;;;;;;;;;5064533;28;20200;-53
2023/04/25 04:14:24;;;;;;;6.47;3.40;;;;;;;;;;5060796;28;20191;-53
2023/04/25 04:16:52;;;;;;;5.47;3.10;;;;;;;;;;5067313;28;20200;-53
2023/04/25 04:19:18;;;;;;;8.63;3.13;;;;;;;;;;5046238;28;20582;-54
2023/04/25 04:21:45;;;;;;;6.20;3.27;;;;;;;;;;5066632;28;20169;-54
2023/04/25 04:24:11;;;;;;;7.57;3.57;;;;;;;;;;5063116;28;20234;-54
2023/04/25 04:26:38;;;;;;;6.53;3.70;;;;;;;;;;5068097;28;20648;-54
2023/04/25 04:29:04;;;;;;;7.60;3.13;;;;;;;;;;5065774;28;20207;-55
2023/04/25 04:31:32;;;;;;;6.03;3.17;;;;;;;;;;5066562;28;20939;-54
2023/04/25 04:33:58;;;;;;;8.50;3.57;;;;;;;;;;5064413;28;20180;-53
2023/04/25 04:36:26;;;;;;;6.53;3.27;;;;;;;;;;5065176;28;20577;-53
2023/04/25 04:38:52;;;;;;;7.30;3.97;;;;;;;;;;5060205;28;20246;-54
2023/04/25 04:41:19;;;;;;;4.07;3.20;;;;;;;;;;5064336;28;20192;-56
2023/04/25 04:43:46;;;;;;;6.93;3.23;;;;;;;;;;5059276;28;20184;-53
2023/04/25 04:46:13;;;;;;;6.10;3.87;;;;;;;;;;5063491;28;20267;-54
2023/04/25 04:48:39;;;;;;;7.47;3.13;;;;;;;;;;5056582;28;20181;-54
2023/04/25 04:51:06;;;;;;;11.03;3.87;;;;;;;;;;5044959;28;22033;-54
2023/04/25 04:53:33;;;;;;;7.77;3.67;;;;;;;;;;5064857;28;20182;-53
2023/04/25 04:55:59;;;;;;;4.97;2.67;;;;;;;;;;5067477;28;20203;-54
2023/04/25 04:58:28;;;;;;;5.77;3.67;;;;;;;;;;5063318;28;20234;-54
2023/04/25 05:00:55;;;;;;;7.90;3.90;;;;;;;;;;5064508;28;20432;-54
2023/04/25 05:03:22;;;;;;;6.57;3.40;;;;;;;;;;5065503;28;20172;-56
2023/04/25 05:05:49;;;;;;;5.13;3.07;;;;;;;;;;5058403;28;20237;-54
2023/04/25 05:08:15;;;;;;;5.97;3.20;;;;;;;;;;5067685;28;20536;-54
2023/04/25 05:10:42;;;;;;;3.60;2.73;;;;;;;;;;5062847;28;20207;-54
2023/04/25 05:13:08;;;;;;;6.23;2.97;;;;;;;;;;5064878;28;20299;-53
2023/04/25 05:15:34;;;;;;;6.13;3.07;;;;;;;;;;5067706;28;20207;-54
2023/04/25 05:18:01;;;;;;;4.70;3.13;;;;;;;;;;5068325;28;20676;-55
2023/04/25 05:20:27;;;;;;;10.30;3.60;;;;;;;;;;5070985;28;20181;-53
2023/04/25 05:22:54;;;;;;;9.03;3.90;;;;;;;;;;5070728;28;20208;-54
2023/04/25 05:25:21;;;;;;;6.93;3.33;;;;;;;;;;5071409;28;20168;-55
2023/04/25 05:27:47;;;;;;;8.43;3.73;;;;;;;;;;5069724;28;20185;-53
2023/04/25 05:30:14;;;;;;;7.30;3.83;;;;;;;;;;5070995;28;20184;-54
2023/04/25 05:32:41;;;;;;;7.97;3.70;;;;;;;;;;5071233;28;20173;-54
2023/04/25 05:35:08;;;;;;;9.40;3.50;;;;;;;;;;5065682;28;20180;-54
2023/04/25 05:37:35;;;;;;;8.73;3.50;;;;;;;;;;5066753;28;20279;-54
2023/04/25 05:40:01;;;;;;;9.53;4.27;;;;;;;;;;5063542;28;20181;-53
2023/04/25 05:42:27;;;;;;;6.77;3.47;;;;;;;;;;5040501;28;20172;-54
2023/04/25 05:44:53;;;;;;;5.17;3.03;;;;;;;;;;5060651;28;20227;-54
2023/04/25 05:47:20;;;;;;;7.33;3.70;;;;;;;;;;5066743;28;20176;-54
2023/04/25 05:49:46;;;;;;;4.13;3.10;;;;;;;;;;5067125;28;20774;-53
2023/04/25 05:52:13;;;;;;;7.43;3.60;;;;;;;;;;5067136;28;20623;-54
2023/04/25 05:54:39;;;;;;;5.70;3.20;;;;;;;;;;5067070;28;20268;-54
2023/04/25 05:57:06;;;;;;;8.47;3.53;;;;;;;;;;5067069;28;20451;-53
2023/04/25 05:59:32;;;;;;;6.60;3.63;;;;;;;;;;5058982;28;20287;-53
2023/04/25 06:01:59;;;;;;;6.10;3.30;;;;;;;;;;5067581;28;20692;-53
2023/04/25 06:04:26;;;;;;;8.40;3.43;;;;;;;;;;5070940;28;20521;-53
2023/04/25 06:06:52;;;;;;;7.07;3.70;;;;;;;;;;5068351;28;20180;-53
2023/04/25 06:09:18;;;;;;;5.03;3.73;;;;;;;;;;5066992;28;20582;-53
2023/04/25 06:11:45;;;;;;;5.37;2.90;;;;;;;;;;5065679;28;20226;-53
2023/04/25 06:14:11;;;;;;;5.57;3.23;;;;;;;;;;5069290;28;20204;-52
2023/04/25 06:16:37;;;;;;;5.73;3.17;;;;;;;;;;5061389;28;20203;-53
2023/04/25 06:19:04;;;;;;;9.93;4.27;;;;;;;;;;5059444;28;20566;-54
2023/04/25 06:21:31;;;;;;;7.13;3.53;;;;;;;;;;5060839;28;20181;-53
2023/04/25 06:23:58;;;;;;;10.50;3.20;;;;;;;;;;5053270;28;20545;-57
2023/04/25 06:26:24;;;;;;;9.63;3.47;;;;;;;;;;5042865;28;20321;-53
2023/04/25 06:28:52;;;;;;;10.10;3.80;;;;;;;;;;5038668;28;20857;-53
2023/04/25 06:31:19;;;;;;;8.40;3.37;;;;;;;;;;5034027;28;20549;-53
2023/04/25 06:33:45;;;;;;;9.57;3.57;;;;;;;;;;5038918;28;20327;-54
2023/04/25 06:36:11;;;;;;;7.17;3.93;;;;;;;;;;5050058;28;20234;-54
2023/04/25 06:38:38;;;;;;;9.97;3.50;;;;;;;;;;5046411;28;20208;-53
2023/04/25 06:41:04;;;;;;;7.57;3.47;;;;;;;;;;5043518;28;20177;-54
2023/04/25 06:43:33;;;;;;;7.93;4.23;;;;;;;;;;5049649;28;20706;-53
2023/04/25 06:46:00;;;;;;;7.63;4.30;;;;;;;;;;5040633;28;20497;-54
2023/04/25 06:48:27;;;;;;;6.53;3.17;;;;;;;;;;5040274;28;20569;-55
2023/04/25 06:50:54;;;;;;;7.07;3.30;;;;;;;;;;5044230;28;21745;-59
2023/04/25 06:53:20;;;;;;;10.27;3.97;;;;;;;;;;5014247;28;20229;-53
2023/04/25 06:55:47;;;;;;;6.43;3.17;;;;;;;;;;5043285;28;20177;-53
2023/04/25 06:58:13;;;;;;;7.27;4.00;;;;;;;;;;5045384;28;20208;-53
2023/04/25 07:00:39;;;;;;;13.20;3.73;;;;;;;;;;5036027;28;20677;-54
2023/04/25 07:03:06;;;;;;;8.07;3.93;;;;;;;;;;5034424;28;20188;-54
2023/04/25 07:05:32;;;;;;;8.53;3.47;;;;;;;;;;5048621;28;20192;-53
2023/04/25 07:08:00;;;;;;;10.30;3.87;;;;;;;;;;5045994;28;20191;-54
2023/04/25 07:10:26;;;;;;;7.30;3.57;;;;;;;;;;5044033;28;20193;-54
2023/04/25 07:12:53;;;;;;;10.23;4.43;;;;;;;;;;5038167;28;20208;-54
2023/04/25 07:15:19;;;;;;;7.70;4.30;;;;;;;;;;5040410;28;20189;-57
2023/04/25 07:17:45;;;;;;;7.83;3.60;;;;;;;;;;5046815;28;20347;-54
2023/04/25 07:20:12;;;;;;;7.40;3.73;;;;;;;;;;5045796;28;20186;-54
2023/04/25 07:22:39;;;;;;;7.50;4.23;;;;;;;;;;5040373;28;20182;-54
2023/04/25 07:25:05;;;;;;;8.30;3.53;;;;;;;;;;5059592;28;20315;-57
2023/04/25 07:27:32;;;;;;;4.47;3.30;;;;;;;;;;5069199;28;20185;-55
2023/04/25 07:29:58;;;;;;;7.37;3.37;;;;;;;;;;5065401;28;20185;-55
2023/04/25 07:32:25;;;;;;;10.70;4.27;;;;;;;;;;5064834;28;20270;-55
2023/04/25 07:34:52;;;;;;;9.40;4.30;;;;;;;;;;5064919;28;20184;-58
2023/04/25 07:37:18;;;;;;;12.07;4.53;;;;;;;;;;5058844;28;20578;-59
2023/04/25 07:39:48;;;;;;;6.77;4.57;;;;;;;;;;5064819;28;20180;-58
2023/04/25 07:42:14;;;;;;;10.60;4.97;;;;;;;;;;5065189;28;20173;-58
2023/04/25 07:44:42;;;;;;;14.00;5.50;;;;;;;;;;5064004;28;20177;-58
2023/04/25 07:47:09;;;;;;;7.07;4.80;;;;;;;;;;5061129;28;20180;-59
2023/04/25 07:49:38;;;;;;;11.03;5.03;;;;;;;;;;5053309;28;20173;-59
2023/04/25 07:52:05;;;;;;;11.03;4.37;;;;;;;;;;5059408;28;20538;-58
2023/04/25 07:54:32;;;;;;;10.90;4.10;;;;;;;;;;5056454;28;20219;-58
2023/04/25 07:56:59;;;;;;;12.57;4.67;;;;;;;;;;5060917;28;20566;-58
2023/04/25 07:59:25;;;;;;;7.53;4.67;;;;;;;;;;5062397;28;20180;-58
2023/04/25 08:01:52;;;;;;;10.27;3.97;;;;;;;;;;5054878;28;20181;-59
2023/04/25 08:04:18;;;;;;;10.50;4.13;;;;;;;;;;5063863;28;20641;-60
2023/04/25 08:06:45;;;;;;;10.50;4.50;;;;;;;;;;5059870;28;20609;-59
2023/04/25 08:09:11;;;;;;;8.83;4.23;;;;;;;;;;5063321;28;20327;-59
2023/04/25 08:11:38;;;;;;;12.33;4.20;;;;;;;;;;5048172;28;20573;-59
2023/04/25 08:14:04;;;;;;;10.80;4.27;;;;;;;;;;5062179;28;20168;-59
2023/04/25 08:16:31;;;;;;;9.50;3.50;;;;;;;;;;5060544;28;20251;-60
2023/04/25 08:18:57;;;;;;;7.17;3.70;;;;;;;;;;5062477;28;20180;-61
2023/04/25 08:21:25;;;;;;;6.23;3.73;;;;;;;;;;5063187;28;20651;-58
2023/04/25 08:23:51;;;;;;;7.60;4.47;;;;;;;;;;5061695;28;20703;-58
2023/04/25 08:26:18;;;;;;;9.77;4.43;;;;;;;;;;5058377;28;20216;-58
2023/04/25 08:28:44;;;;;;;7.73;3.10;;;;;;;;;;5054501;28;20180;-58
2023/04/25 08:31:11;;;;;;;12.07;3.47;;;;;;;;;;5059980;28;20176;-59
2023/04/25 08:33:37;;;;;;;6.03;3.57;;;;;;;;;;5060287;28;20188;-59
2023/04/25 08:36:04;;;;;;;4.33;2.83;;;;;;;;;;5041020;28;20173;-58
2023/04/25 08:38:31;;;;;;;5.23;3.17;;;;;;;;;;5057564;28;20287;-58
2023/04/25 08:41:00;;;;;;;7.10;3.60;;;;;;;;;;5055794;28;20187;-58
2023/04/25 08:43:27;;;;;;;4.93;2.73;;;;;;;;;;5059712;28;20184;-58
2023/04/25 08:45:54;;;;;;;7.50;2.87;;;;;;;;;;5062633;28;20168;-59
2023/04/25 08:48:22;;;;;;;4.30;2.83;;;;;;;;;;5058534;28;20177;-58
2023/04/25 08:50:52;;;;;;;6.10;2.67;;;;;;;;;;5061165;28;20180;-58
2023/04/25 08:53:21;;;;;;;7.97;3.53;;;;;;;;;;5058399;28;20181;-59
2023/04/25 08:55:49;;;;;;;4.93;2.83;;;;;;;;;;5058524;28;20187;-59
2023/04/25 08:58:16;;;;;;;4.73;2.43;;;;;;;;;;5057200;28;20568;-59
2023/04/25 09:00:42;;;;;;;6.37;2.87;;;;;;;;;;5060479;28;20651;-58
2023/04/25 09:03:09;;;;;;;5.43;2.43;;;;;;;;;;5048464;28;20180;-58
2023/04/25 09:05:36;;;;;;;7.77;2.67;;;;;;;;;;5055379;28;20699;-57
2023/04/25 09:08:02;;;;;;;7.93;2.30;;;;;;;;;;5056001;28;20176;-59
2023/04/25 09:10:29;;;;;;;4.63;2.37;;;;;;;;;;5041169;28;20270;-59
2023/04/25 09:13:06;;;;;;;6.30;2.50;;;;;;;;;;5040683;28;20259;-59
2023/04/25 09:15:33;;;;;;;4.43;2.03;;;;;;;;;;5058716;28;20185;-59
2023/04/25 09:18:00;;;;;;;5.03;2.20;;;;;;;;;;5055950;28;20187;-60
2023/04/25 09:20:26;;;;;;;2.93;1.90;;;;;;;;;;5061726;28;20177;-58
2023/04/25 09:23:03;;;;;;;6.80;2.37;;;;;;;;;;5063489;28;20175;-58
2023/04/25 09:25:35;;;;;;;4.20;2.20;;;;;;;;;;5058134;28;20663;-59
2023/04/25 09:28:04;;;;;;;6.17;2.57;;;;;;;;;;5059665;28;20268;-59
2023/04/25 09:30:31;;;;;;;8.67;3.17;;;;;;;;;;5055828;28;20252;-60
2023/04/25 09:33:04;;;;;;;3.20;2.07;;;;;;;;;;5056711;28;20223;-59
2023/04/25 09:35:37;;;;;;;3.37;2.20;;;;;;;;;;5060094;28;20664;-60
2023/04/25 09:38:07;;;;;;;5.40;2.27;;;;;;;;;;5058971;28;20193;-58
2023/04/25 09:40:33;;;;;;;3.77;1.90;;;;;;;;;;5055568;28;20169;-58
2023/04/25 09:43:00;;;;;;;3.90;1.77;;;;;;;;;;5061835;28;20203;-58
2023/04/25 09:45:26;;;;;;;2.23;1.50;;;;;;;;;;5039655;28;20184;-58
2023/04/25 09:47:57;;;;;;;6.00;1.97;;;;;;;;;;5064334;28;20230;-58
2023/04/25 09:50:24;;;;;;;3.70;1.90;;;;;;;;;;5059028;28;20271;-59
2023/04/25 09:53:07;;;;;;;5.10;2.03;;;;;;;;;;5057701;28;20664;-59
2023/04/25 09:55:34;;;;;;;3.33;1.97;;;;;;;;;;5058528;28;20423;-59
2023/04/25 09:58:06;;;;;;;5.80;2.10;;;;;;;;;;5058652;28;20236;-60
2023/04/25 10:00:32;;;;;;;2.10;1.67;;;;;;;;;;5040285;28;20177;-59
2023/04/25 10:03:01;;;;;;;5.13;1.73;;;;;;;;;;5061443;28;20179;-58
2023/04/25 10:05:29;;;;;;;6.97;2.00;;;;;;;;;;5064888;28;20180;-58
2023/04/25 10:07:59;;;;;;;3.37;1.97;;;;;;;;;;5070932;28;20176;-57
2023/04/25 10:10:27;;;;;;;5.53;2.50;;;;;;;;;;5066932;28;20180;-58
2023/04/25 10:12:55;;;;;;;4.77;2.13;;;;;;;;;;5060942;28;20208;-58
2023/04/25 10:15:22;;;;;;;8.87;2.50;;;;;;;;;;5058434;28;20175;-58
2023/04/25 10:17:50;;;;;;;6.80;1.90;;;;;;;;;;5069143;28;20211;-58
2023/04/25 10:20:16;;;;;;;1.87;1.60;;;;;;;;;;5047269;28;20201;-58
2023/04/25 10:22:45;;;;;;;5.57;1.63;;;;;;;;;;5058327;28;20177;-60
2023/04/25 10:25:11;;;;;;;4.43;1.70;;;;;;;;;;5065451;28;20220;-58
2023/04/25 10:27:37;;;;;;;4.07;1.90;;;;;;;;;;5058695;28;20183;-58
2023/04/25 10:30:16;;;;;;;5.53;1.80;;;;;;;;;;5067043;28;20168;-58
2023/04/25 10:32:43;;;;;;;2.77;1.90;;;;;;;;;;5067084;28;20177;-58
2023/04/25 10:35:14;;;;;;;8.30;1.93;;;;;;;;;;5071600;28;20208;-58
2023/04/25 10:37:59;;;;;;;2.53;1.30;;;;;;;;;;5047726;28;20212;-58
2023/04/25 10:40:26;;;;;;;3.47;1.47;;;;;;;;;;5062307;28;20206;-58
2023/04/25 10:42:54;;;;;;;2.53;1.77;;;;;;;;;;5064986;28;20175;-57
2023/04/25 10:45:21;;;;;;;5.20;1.77;;;;;;;;;;5065734;28;20533;-57
2023/04/25 10:47:47;;;;;;;5.33;1.60;;;;;;;;;;5060714;28;20538;-58
2023/04/25 10:50:16;;;;;;;3.00;2.10;;;;;;;;;;5058293;28;20176;-58
2023/04/25 10:52:42;;;;;;;3.83;1.87;;;;;;;;;;5070101;28;20168;-57
2023/04/25 10:55:09;;;;;;;5.73;2.00;;;;;;;;;;5065699;28;20686;-57
2023/04/25 10:57:43;;;;;;;3.73;1.47;;;;;;;;;;5065091;28;20211;-57
2023/04/25 11:00:16;;;;;;;3.10;1.70;;;;;;;;;;5066886;28;20184;-57
2023/04/25 11:02:44;;;;;;;4.77;2.00;;;;;;;;;;5062332;28;20664;-57
2023/04/25 11:05:11;;;;;;;3.07;1.43;;;;;;;;;;5059828;28;20183;-61
2023/04/25 11:07:51;;;;;;;4.67;1.70;;;;;;;;;;5058085;28;20725;-60
2023/04/25 11:10:18;;;;;;;3.67;2.10;;;;;;;;;;5055534;28;20329;-60
2023/04/25 11:12:46;;;;;;;3.40;2.37;;;;;;;;;;5060354;28;20200;-60
2023/04/25 11:15:13;;;;;;;6.57;1.77;;;;;;;;;;5059128;28;20203;-59
2023/04/25 11:17:40;;;;;;;4.03;1.93;;;;;;;;;;5063627;28;20199;-59
2023/04/25 11:20:11;;;;;;;3.30;2.50;;;;;;;;;;5061744;28;20200;-59
2023/04/25 11:22:40;;;;;;;6.43;2.37;;;;;;;;;;5062133;28;20264;-59
2023/04/25 11:25:11;;;;;;;3.93;2.27;;;;;;;;;;5057856;28;20219;-54
2023/04/25 11:27:51;;;;;;;5.80;2.63;;;;;;;;;;5042772;28;21451;-57
2023/04/25 11:30:18;;;;;;;3.87;2.63;;;;;;;;;;5066681;28;20180;-58
2023/04/25 11:32:45;;;;;;;7.67;2.97;;;;;;;;;;5049526;28;20193;-52
2023/04/25 11:35:12;;;;;;;5.43;3.03;;;;;;;;;;5060593;28;20180;-53
2023/04/25 11:37:42;;;;;;;8.03;2.93;;;;;;;;;;5063861;28;20253;-53
2023/04/25 11:40:11;;;;;;;6.70;3.17;;;;;;;;;;5063474;28;20168;-53
2023/04/25 11:42:38;;;;;;;4.80;3.27;;;;;;;;;;5048523;28;20177;-56
2023/04/25 11:45:05;;;;;;;4.80;2.47;;;;;;;;;;5065352;28;20295;-56
2023/04/25 11:47:32;;;;;;;4.37;2.43;;;;;;;;;;5061730;28;20267;-58
2023/04/25 11:50:02;;;;;;;3.43;2.60;;;;;;;;;;5062008;28;20188;-55
2023/04/25 11:52:42;;;;;;;3.97;2.37;;;;;;;;;;5044052;28;20191;-56
2023/04/25 11:55:10;;;;;;;5.43;2.17;;;;;;;;;;5058570;28;20191;-55
2023/04/25 11:57:38;;;;;;;6.57;2.63;;;;;;;;;;5061788;28;20337;-56
2023/04/25 12:00:22;;;;;;;5.63;2.63;;;;;;;;;;5061764;28;20165;-56
2023/04/25 12:02:52;;;;;;;5.87;2.50;;;;;;;;;;5061004;28;20189;-57
2023/04/25 12:05:20;;;;;;;4.43;2.17;;;;;;;;;;5060208;28;20188;-57
2023/04/25 12:07:46;;;;;;;11.30;2.40;;;;;;;;;;5059098;28;20188;-58
2023/04/25 12:10:13;;;;;;;4.57;2.40;;;;;;;;;;5059895;28;20542;-58
2023/04/25 12:12:42;;;;;;;4.30;2.13;;;;;;;;;;5065431;28;20275;-59
2023/04/25 12:15:28;;;;;;;6.27;2.87;;;;;;;;;;5062922;28;20220;-57
2023/04/25 12:17:55;;;;;;;7.33;3.03;;;;;;;;;;5063390;28;20222;-58
2023/04/25 12:20:24;;;;;;;6.87;3.80;;;;;;;;;;5063286;28;20177;-56
2023/04/25 12:22:52;;;;;;;8.87;3.20;;;;;;;;;;5058846;28;20697;-55
2023/04/25 12:25:37;;;;;;;4.73;2.50;;;;;;;;;;5042754;28;20708;-56
2023/04/25 12:28:31;;;;;;;3.80;2.30;;;;;;;;;;5060006;28;20640;-56
2023/04/25 12:30:59;;;;;;;4.50;2.17;;;;;;;;;;5058027;28;20282;-57
2023/04/25 12:33:26;;;;;;;3.47;2.20;;;;;;;;;;5066757;28;20216;-56
2023/04/25 12:35:53;;;;;;;5.97;2.70;;;;;;;;;;5058666;28;20182;-56
2023/04/25 12:38:26;;;;;;;4.33;2.00;;;;;;;;;;5061891;28;20205;-57
2023/04/25 12:40:53;;;;;;;2.63;1.80;;;;;;;;;;5065003;28;20601;-57
2023/04/25 12:43:19;;;;;;;2.13;1.90;;;;;;;;;;5062594;28;20183;-56
2023/04/25 12:45:50;;;;;;;5.47;2.27;;;;;;;;;;5043199;28;20200;-57
2023/04/25 12:48:17;;;;;;;4.90;2.30;;;;;;;;;;5060389;28;20267;-56
2023/04/25 12:50:44;;;;;;;4.50;2.50;;;;;;;;;;5064990;28;20184;-56
2023/04/25 12:53:11;;;;;;;3.03;1.90;;;;;;;;;;5058149;28;20204;-56
2023/04/25 12:55:38;;;;;;;2.73;1.80;;;;;;;;;;5057742;28;20177;-55
2023/04/25 12:58:04;;;;;;;3.43;1.80;;;;;;;;;;5060984;28;20254;-56
2023/04/25 13:00:31;;;;;;;2.77;1.87;;;;;;;;;;5058415;28;20607;-57
2023/04/25 13:02:57;;;;;;;5.13;2.30;;;;;;;;;;5057736;28;20176;-58
2023/04/25 13:05:24;;;;;;;3.47;2.07;;;;;;;;;;5060562;28;20576;-58
2023/04/25 13:07:51;;;;;;;3.80;2.10;;;;;;;;;;5056858;28;20184;-56
2023/04/25 13:10:17;;;;;;;5.17;1.90;;;;;;;;;;5053270;28;20184;-57
2023/04/25 13:12:44;;;;;;;3.47;1.80;;;;;;;;;;5062190;28;20208;-57
2023/04/25 13:15:11;;;;;;;4.30;1.83;;;;;;;;;;5065933;28;20168;-58
2023/04/25 13:17:38;;;;;;;2.23;1.40;;;;;;;;;;5065084;28;20203;-59
2023/04/25 13:20:08;;;;;;;4.43;1.93;;;;;;;;;;5062650;28;20730;-58
2023/04/25 13:22:36;;;;;;;3.23;2.17;;;;;;;;;;5068524;28;20188;-58
2023/04/25 13:25:03;;;;;;;4.87;2.43;;;;;;;;;;5067460;28;20703;-58
2023/04/25 13:27:32;;;;;;;4.00;1.83;;;;;;;;;;5067295;28;20187;-58
2023/04/25 13:29:59;;;;;;;6.67;1.60;;;;;;;;;;5065902;28;20181;-58
2023/04/25 13:32:26;;;;;;;3.03;1.60;;;;;;;;;;5064639;28;20177;-57
2023/04/25 13:34:52;;;;;;;4.63;2.03;;;;;;;;;;5056690;28;20196;-57
2023/04/25 13:37:18;;;;;;;4.47;1.80;;;;;;;;;;5066995;28;20208;-57
2023/04/25 13:39:45;;;;;;;2.57;1.57;;;;;;;;;;5067160;28;20264;-58
2023/04/25 13:42:12;;;;;;;3.23;1.93;;;;;;;;;;5068378;28;20229;-58
2023/04/25 13:44:38;;;;;;;4.97;2.47;;;;;;;;;;5066329;28;20291;-57
2023/04/25 13:47:05;;;;;;;5.50;2.77;;;;;;;;;;5049826;28;20520;-59
2023/04/25 13:49:31;;;;;;;5.57;2.37;;;;;;;;;;5065878;28;20259;-59
2023/04/25 13:51:58;;;;;;;5.27;2.33;;;;;;;;;;5071146;28;20230;-59
2023/04/25 13:54:24;;;;;;;3.93;2.03;;;;;;;;;;5067601;28;20518;-60
2023/04/25 13:56:50;;;;;;;2.93;2.07;;;;;;;;;;5066947;28;20173;-59
2023/04/25 13:59:16;;;;;;;2.97;1.57;;;;;;;;;;5062292;28;20538;-59
2023/04/25 14:01:43;;;;;;;4.37;1.77;;;;;;;;;;5068692;28;20719;-59
2023/04/25 14:04:09;;;;;;;5.27;2.17;;;;;;;;;;5069377;28;20519;-59
2023/04/25 14:06:36;;;;;;;2.17;1.23;;;;;;;;;;5064020;28;20199;-59
2023/04/25 14:09:04;;;;;;;3.77;1.93;;;;;;;;;;5070272;28;20523;-59
2023/04/25 14:11:30;;;;;;;3.80;2.10;;;;;;;;;;5066831;28;20561;-59
2023/04/25 14:13:57;;;;;;;5.60;2.17;;;;;;;;;;5066041;28;20705;-59
2023/04/25 14:16:24;;;;;;;2.13;1.67;;;;;;;;;;5066377;28;20180;-59
2023/04/25 14:18:50;;;;;;;4.13;1.53;;;;;;;;;;5067907;28;20244;-59
2023/04/25 14:21:17;;;;;;;2.60;2.33;;;;;;;;;;5065254;28;20177;-59
2023/04/25 14:23:43;;;;;;;4.00;1.67;;;;;;;;;;5064197;28;20314;-58
2023/04/25 14:26:12;;;;;;;4.03;1.63;;;;;;;;;;5067538;28;20180;-58
2023/04/25 14:28:38;;;;;;;3.13;2.33;;;;;;;;;;5064281;28;20184;-58
2023/04/25 14:31:04;;;;;;;5.13;1.50;;;;;;;;;;5040046;28;20220;-58
2023/04/25 14:33:31;;;;;;;2.33;1.43;;;;;;;;;;5053786;28;20230;-58
2023/04/25 14:35:57;;;;;;;3.20;1.93;;;;;;;;;;5055836;28;20579;-60
2023/04/25 14:38:25;;;;;;;2.33;1.53;;;;;;;;;;5065934;28;20244;-58
2023/04/25 14:40:53;;;;;;;2.13;1.50;;;;;;;;;;5059958;28;20633;-58
2023/04/25 14:43:20;;;;;;;1.43;1.33;;;;;;;;;;5052932;28;20513;-58